createdAt,value
2022-10-25T00:00:10.414Z,1.80
2022-10-25T00:02:41.000Z,1.58
2022-10-25T00:05:13.523Z,1.80
2022-10-25T00:07:41.616Z,1.55
2022-10-25T00:10:10.262Z,1.75
2022-10-25T00:12:42.818Z,1.48
2022-10-25T00:15:14.027Z,1.30
2022-10-25T00:17:42.351Z,1.40
2022-10-25T00:20:12.917Z,1.02
2022-10-25T00:22:41.207Z,1.15
2022-10-25T00:25:10.610Z,1.10
2022-10-25T00:27:38.696Z,0.98
2022-10-25T00:30:08.673Z,1.35
2022-10-25T00:32:37.161Z,1.10
2022-10-25T00:35:05.440Z,1.05
2022-10-25T00:37:34.640Z,0.93
2022-10-25T00:40:02.465Z,1.10
2022-10-25T00:42:30.302Z,1.20
2022-10-25T00:45:00.487Z,1.10
2022-10-25T00:47:41.322Z,0.90
2022-10-25T00:50:19.265Z,1.10
2022-10-25T00:52:52.541Z,0.80
2022-10-25T00:55:22.963Z,0.70
2022-10-25T00:57:55.432Z,1.17
2022-10-25T01:00:23.488Z,1.20
2022-10-25T01:02:51.836Z,0.80
2022-10-25T01:05:21.010Z,1.08
2022-10-25T01:07:50.289Z,1.30
2022-10-25T01:10:18.480Z,1.08
2022-10-25T01:12:48.561Z,1.20
2022-10-25T01:15:19.346Z,0.95
2022-10-25T01:17:54.389Z,0.98
2022-10-25T01:20:58.859Z,1.08
2022-10-25T01:23:45.851Z,1.10
2022-10-25T01:26:48.419Z,0.63
2022-10-25T01:29:48.083Z,0.90
2022-10-25T01:32:23.038Z,1.08
2022-10-25T01:34:57.357Z,0.77
2022-10-25T01:37:31.998Z,1.00
2022-10-25T01:40:07.805Z,1.00
2022-10-25T01:42:41.947Z,1.08
2022-10-25T01:45:14.298Z,1.20
2022-10-25T01:47:48.779Z,1.10
2022-10-25T01:50:22.460Z,0.75
2022-10-25T01:52:50.352Z,0.90
2022-10-25T01:55:20.709Z,0.90
2022-10-25T01:58:04.733Z,1.00
2022-10-25T02:00:40.053Z,1.25
2022-10-25T02:03:18.168Z,1.27
2022-10-25T02:06:00.793Z,0.93
2022-10-25T02:08:36.312Z,0.95
2022-10-25T02:11:10.277Z,1.02
2022-10-25T02:13:48.935Z,1.00
2022-10-25T02:16:20.625Z,1.00
2022-10-25T02:18:54.801Z,0.77
2022-10-25T02:21:25.864Z,1.10
2022-10-25T02:23:55.675Z,1.20
2022-10-25T02:26:24.293Z,0.93
2022-10-25T02:28:52.789Z,1.10
2022-10-25T02:31:23.193Z,1.00
2022-10-25T02:33:52.774Z,0.93
2022-10-25T02:36:22.396Z,0.82
2022-10-25T02:38:52.461Z,1.20
2022-10-25T02:45:19.901Z,0.80
2022-10-25T02:47:47.929Z,0.90
2022-10-25T02:50:17.443Z,0.80
2022-10-25T02:52:45.535Z,0.80
2022-10-25T02:55:13.462Z,0.90
2022-10-25T02:57:41.332Z,0.75
2022-10-25T03:02:44.074Z,0.90
2022-10-25T03:05:12.016Z,0.70
2022-10-25T03:07:41.204Z,0.70
2022-10-25T03:10:09.805Z,0.80
2022-10-25T03:12:37.666Z,0.80
2022-10-25T03:15:06.240Z,1.00
2022-10-25T03:17:34.170Z,1.20
2022-10-25T03:20:01.910Z,0.80
2022-10-25T03:22:29.689Z,0.90
2022-10-25T03:24:58.879Z,0.80
2022-10-25T03:27:26.767Z,0.88
2022-10-25T03:29:54.894Z,1.02
2022-10-25T03:32:22.795Z,0.90
2022-10-25T03:34:50.573Z,1.10
2022-10-25T03:37:18.359Z,1.10
2022-10-25T03:39:46.111Z,0.95
2022-10-25T03:42:15.559Z,0.90
2022-10-25T03:44:43.348Z,1.38
2022-10-25T03:47:11.237Z,1.30
2022-10-25T03:49:39.140Z,1.00
2022-10-25T03:52:07.318Z,1.00
2022-10-25T03:54:35.936Z,0.95
2022-10-25T03:57:04.356Z,0.77
2022-10-25T03:59:33.517Z,0.80
2022-10-25T04:02:02.086Z,1.05
2022-10-25T04:04:30.006Z,1.17
2022-10-25T04:06:57.927Z,0.88
2022-10-25T04:09:25.804Z,0.70
2022-10-25T04:11:53.721Z,1.05
2022-10-25T04:14:21.772Z,1.13
2022-10-25T04:16:51.051Z,0.90
2022-10-25T04:19:19.146Z,0.93
2022-10-25T04:21:47.648Z,0.98
2022-10-25T04:24:15.468Z,1.35
2022-10-25T04:26:43.321Z,1.08
2022-10-25T04:29:12.102Z,0.90
2022-10-25T04:31:39.911Z,0.90
2022-10-25T04:34:09.084Z,1.10
2022-10-25T04:36:36.973Z,1.00
2022-10-25T04:39:04.889Z,0.80
2022-10-25T04:41:33.073Z,1.10
2022-10-25T04:44:00.854Z,0.90
2022-10-25T04:46:28.669Z,1.00
2022-10-25T04:48:56.468Z,1.10
2022-10-25T04:51:25.696Z,1.27
2022-10-25T04:53:54.420Z,1.30
2022-10-25T04:56:22.476Z,1.17
2022-10-25T04:58:50.286Z,1.00
2022-10-25T05:01:19.537Z,1.10
2022-10-25T05:03:47.565Z,1.00
2022-10-25T05:06:18.152Z,1.17
2022-10-25T05:08:49.494Z,1.00
2022-10-25T05:11:19.033Z,1.13
2022-10-25T05:13:47.865Z,1.00
2022-10-25T05:16:20.271Z,1.30
2022-10-25T05:18:48.620Z,1.08
2022-10-25T05:21:17.408Z,1.10
2022-10-25T05:23:45.381Z,0.95
2022-10-25T05:26:17.019Z,1.13
2022-10-25T05:28:47.056Z,1.17
2022-10-25T05:31:16.622Z,1.00
2022-10-25T05:33:45.993Z,1.25
2022-10-25T05:36:15.079Z,1.13
2022-10-25T05:38:43.668Z,1.20
2022-10-25T05:41:13.121Z,1.40
2022-10-25T05:43:42.961Z,1.00
2022-10-25T05:46:13.413Z,1.10
2022-10-25T05:48:45.796Z,1.50
2022-10-25T05:51:33.343Z,1.10
2022-10-25T05:54:03.677Z,1.00
2022-10-25T05:56:33.088Z,1.20
2022-10-25T05:59:08.853Z,1.02
2022-10-25T06:01:37.716Z,1.38
2022-10-25T06:04:06.343Z,1.30
2022-10-25T06:06:34.691Z,1.30
2022-10-25T06:09:03.014Z,1.30
2022-10-25T06:11:31.527Z,1.40
2022-10-25T06:13:59.355Z,1.20
2022-10-25T06:16:28.902Z,1.13
2022-10-25T06:18:56.976Z,1.60
2022-10-25T06:21:27.328Z,1.30
2022-10-25T06:23:55.594Z,1.38
2022-10-25T06:26:25.413Z,1.20
2022-10-25T06:28:55.021Z,1.10
2022-10-25T06:31:23.430Z,1.40
2022-10-25T06:33:53.088Z,1.10
2022-10-25T06:36:22.629Z,1.13
2022-10-25T06:38:51.242Z,1.30
2022-10-25T06:41:20.857Z,1.30
2022-10-25T06:43:49.369Z,1.25
2022-10-25T06:46:21.834Z,1.60
2022-10-25T06:48:50.038Z,1.20
2022-10-25T06:51:19.948Z,1.55
2022-10-25T06:53:47.834Z,1.50
2022-10-25T06:56:15.781Z,1.50
2022-10-25T06:58:43.893Z,1.35
2022-10-25T07:01:13.255Z,1.33
2022-10-25T07:03:41.558Z,1.30
2022-10-25T07:06:11.056Z,1.30
2022-10-25T07:08:41.828Z,1.20
2022-10-25T07:11:15.414Z,1.40
2022-10-25T07:13:43.493Z,1.20
2022-10-25T07:16:14.301Z,1.23
2022-10-25T07:18:42.818Z,1.30
2022-10-25T07:21:13.116Z,1.30
2022-10-25T07:23:43.095Z,1.17
2022-10-25T07:26:12.739Z,1.30
2022-10-25T07:28:41.426Z,1.63
2022-10-25T07:31:09.266Z,1.48
2022-10-25T07:33:37.127Z,1.40
2022-10-25T07:36:10.661Z,1.60
2022-10-25T07:38:39.602Z,1.30
2022-10-25T07:41:09.493Z,1.27
2022-10-25T07:43:39.101Z,1.48
2022-10-25T07:46:07.898Z,1.23
2022-10-25T07:48:36.673Z,1.30
2022-10-25T07:51:05.871Z,1.42
2022-10-25T07:53:33.844Z,1.30
2022-10-25T07:56:01.704Z,1.30
2022-10-25T07:58:30.936Z,1.30
2022-10-25T08:01:03.389Z,1.33
2022-10-25T08:03:32.188Z,1.23
2022-10-25T08:06:00.676Z,1.20
2022-10-25T08:08:29.037Z,1.15
2022-10-25T08:10:57.712Z,1.10
2022-10-25T08:13:25.523Z,1.88
2022-10-25T08:15:56.446Z,1.20
2022-10-25T08:18:25.243Z,1.20
2022-10-25T08:21:08.285Z,1.10
2022-10-25T08:23:36.257Z,1.42
2022-10-25T08:26:04.515Z,1.33
2022-10-25T08:28:32.680Z,1.40
2022-10-25T08:31:02.113Z,1.20
2022-10-25T08:33:30.109Z,1.40
2022-10-25T08:36:00.897Z,1.40
2022-10-25T08:38:28.657Z,1.40
2022-10-25T08:41:04.202Z,1.15
2022-10-25T08:43:53.278Z,1.02
2022-10-25T08:46:27.234Z,1.30
2022-10-25T08:49:11.582Z,1.25
2022-10-25T08:51:42.785Z,1.70
2022-10-25T08:54:22.596Z,1.10
2022-10-25T08:57:10.781Z,1.30
2022-10-25T08:59:44.093Z,1.20
2022-10-25T09:02:19.508Z,1.20
2022-10-25T09:04:47.503Z,1.52
2022-10-25T09:07:30.096Z,1.25
2022-10-25T09:10:10.324Z,0.95
2022-10-25T09:12:43.960Z,1.40
2022-10-25T09:15:21.051Z,1.35
2022-10-25T09:17:52.019Z,1.10
2022-10-25T09:20:22.036Z,1.25
2022-10-25T09:22:55.385Z,1.20
2022-10-25T09:25:31.087Z,1.20
2022-10-25T09:28:01.128Z,1.25
2022-10-25T09:30:31.255Z,1.17
2022-10-25T09:33:04.311Z,1.42
2022-10-25T09:35:42.089Z,1.30
2022-10-25T09:38:16.997Z,1.10
2022-10-25T09:40:48.214Z,1.13
2022-10-25T09:43:19.818Z,0.90
2022-10-25T09:45:51.390Z,1.15
2022-10-25T09:48:28.565Z,1.20
2022-10-25T09:51:04.050Z,1.33
2022-10-25T09:53:34.359Z,1.20
2022-10-25T09:56:05.862Z,1.50
2022-10-25T09:58:36.394Z,1.27
2022-10-25T10:01:07.592Z,1.40
2022-10-25T10:03:37.913Z,1.75
2022-10-25T10:06:17.946Z,1.50
2022-10-25T10:08:51.876Z,1.77
2022-10-25T10:11:21.543Z,1.38
2022-10-25T10:13:54.847Z,1.55
2022-10-25T10:16:26.959Z,1.27
2022-10-25T10:19:14.763Z,1.35
2022-10-25T10:21:44.717Z,1.20
2022-10-25T10:24:18.594Z,1.30
2022-10-25T10:26:51.615Z,1.50
2022-10-25T10:29:23.105Z,1.70
2022-10-25T10:31:53.203Z,1.30
2022-10-25T10:34:28.379Z,1.10
2022-10-25T10:37:04.238Z,1.20
2022-10-25T10:39:32.557Z,1.30
2022-10-25T10:42:03.366Z,1.48
2022-10-25T10:44:34.686Z,1.30
2022-10-25T10:47:10.867Z,1.10
2022-10-25T10:49:42.695Z,1.15
2022-10-25T10:52:28.499Z,1.43
2022-10-25T10:54:56.911Z,1.10
2022-10-25T10:57:32.308Z,1.10
2022-10-25T11:00:01.382Z,1.20
2022-10-25T11:02:41.491Z,1.05
2022-10-25T11:05:22.921Z,1.23
2022-10-25T11:07:56.997Z,1.10
2022-10-25T11:10:27.593Z,1.40
2022-10-25T11:13:20.219Z,1.20
2022-10-25T11:16:18.630Z,1.00
2022-10-25T11:18:54.735Z,1.10
2022-10-25T11:21:40.297Z,1.00
2022-10-25T11:24:15.970Z,1.20
2022-10-25T11:26:54.263Z,1.10
2022-10-25T11:29:39.708Z,0.90
2022-10-25T11:32:43.158Z,1.10
2022-10-25T11:35:26.269Z,1.00
2022-10-25T11:38:02.798Z,1.10
2022-10-25T11:40:32.096Z,1.00
2022-10-25T11:43:14.256Z,0.98
2022-10-25T11:45:44.155Z,0.90
2022-10-25T11:48:47.372Z,0.93
2022-10-25T11:54:05.375Z,1.08
2022-10-25T11:56:40.091Z,1.05
2022-10-25T11:59:17.495Z,0.90
2022-10-25T12:01:58.708Z,1.17
2022-10-25T12:04:45.934Z,1.00
2022-10-25T12:07:20.043Z,1.00
2022-10-25T12:10:03.025Z,0.90
2022-10-25T12:12:42.843Z,1.20
2022-10-25T12:15:18.244Z,1.10
2022-10-25T12:17:46.188Z,1.10
2022-10-25T12:20:21.530Z,1.05
2022-10-25T12:22:52.921Z,1.30
2022-10-25T12:25:26.276Z,0.95
2022-10-25T12:28:01.266Z,1.00
2022-10-25T12:30:31.526Z,1.10
2022-10-25T12:33:06.190Z,1.20
2022-10-25T12:35:40.968Z,1.13
2022-10-25T12:38:16.529Z,1.00
2022-10-25T12:40:50.488Z,1.08
2022-10-25T12:43:27.823Z,1.00
2022-10-25T12:46:05.334Z,0.80
2022-10-25T12:48:54.831Z,0.88
2022-10-25T12:51:38.096Z,1.10
2022-10-25T12:54:23.925Z,1.13
2022-10-25T12:57:06.669Z,1.00
2022-10-25T12:59:50.675Z,1.00
2022-10-25T13:02:55.944Z,0.80
2022-10-25T13:05:59.092Z,0.98
2022-10-25T13:08:29.629Z,0.90
2022-10-25T13:11:02.418Z,0.73
2022-10-25T13:13:33.798Z,0.80
2022-10-25T13:16:04.477Z,1.08
2022-10-25T13:18:45.237Z,0.73
2022-10-25T13:21:14.454Z,0.90
2022-10-25T13:24:01.069Z,0.90
2022-10-25T13:26:32.173Z,1.02
2022-10-25T13:29:03.650Z,1.10
2022-10-25T13:31:46.847Z,1.00
2022-10-25T13:34:36.825Z,0.75
2022-10-25T13:37:43.741Z,0.98
2022-10-25T13:40:24.686Z,0.60
2022-10-25T13:43:02.665Z,0.80
2022-10-25T13:45:46.298Z,0.60
2022-10-25T13:48:26.718Z,0.68
2022-10-25T13:50:56.741Z,1.00
2022-10-25T13:53:27.063Z,0.65
2022-10-25T13:56:00.185Z,0.63
2022-10-25T13:58:49.194Z,0.80
2022-10-25T14:01:54.772Z,0.70
2022-10-25T14:04:35.466Z,0.80
2022-10-25T14:07:40.787Z,0.80
2022-10-25T14:10:16.493Z,0.75
2022-10-25T14:12:48.665Z,0.80
2022-10-25T14:15:25.596Z,0.80
2022-10-25T14:17:53.813Z,0.60
2022-10-25T14:20:28.632Z,0.70
2022-10-25T14:23:00.693Z,0.60
2022-10-25T14:25:34.843Z,0.60
2022-10-25T14:28:15.147Z,0.80
2022-10-25T14:30:44.850Z,0.85
2022-10-25T14:33:31.233Z,0.70
2022-10-25T14:36:09.488Z,0.70
2022-10-25T14:38:49.806Z,0.70
2022-10-25T14:41:22.295Z,0.77
2022-10-25T14:43:50.468Z,0.73
2022-10-25T14:46:19.940Z,0.50
2022-10-25T14:48:49.652Z,0.65
2022-10-25T14:51:22.078Z,0.70
2022-10-25T14:53:56.838Z,0.70
2022-10-25T14:56:30.110Z,0.52
2022-10-25T14:58:59.006Z,0.57
2022-10-25T15:01:27.511Z,0.70
2022-10-25T15:03:59.145Z,0.57
2022-10-25T15:06:30.943Z,0.80
2022-10-25T15:09:37.083Z,0.63
2022-10-25T15:12:04.635Z,0.73
2022-10-25T15:14:32.793Z,0.80
2022-10-25T15:17:05.097Z,0.63
2022-10-25T15:19:34.048Z,1.00
2022-10-25T15:22:16.290Z,0.82
2022-10-25T15:24:45.920Z,0.90
2022-10-25T15:27:27.876Z,1.00
2022-10-25T15:29:55.963Z,0.67
2022-10-25T15:32:27.017Z,0.68
2022-10-25T15:34:56.731Z,0.77
2022-10-25T15:37:27.195Z,0.70
2022-10-25T15:39:56.399Z,0.65
2022-10-25T15:42:26.859Z,1.13
2022-10-25T15:44:55.415Z,1.67
2022-10-25T15:47:33.064Z,1.40
2022-10-25T15:50:03.965Z,1.55
2022-10-25T15:52:33.313Z,1.48
2022-10-25T15:55:01.235Z,1.60
2022-10-25T15:57:29.165Z,1.55
2022-10-25T15:59:57.229Z,1.60
2022-10-25T16:02:28.537Z,1.20
2022-10-25T16:04:56.580Z,1.40
2022-10-25T16:07:24.450Z,1.15
2022-10-25T16:09:53.783Z,1.30
2022-10-25T16:12:25.795Z,1.08
2022-10-25T16:14:54.205Z,1.13
2022-10-25T16:17:21.957Z,1.10
2022-10-25T16:19:49.841Z,1.05
2022-10-25T16:22:17.682Z,1.42
2022-10-25T16:24:45.494Z,1.25
2022-10-25T16:27:14.808Z,1.48
2022-10-25T16:29:42.714Z,1.70
2022-10-25T16:32:10.636Z,1.70
2022-10-25T16:34:42.363Z,2.00
2022-10-25T16:37:11.971Z,2.15
2022-10-25T16:39:40.202Z,2.40
2022-10-25T16:42:31.472Z,1.88
2022-10-25T16:45:00.181Z,1.60
2022-10-25T16:47:28.365Z,1.70
2022-10-25T16:49:56.263Z,1.92
2022-10-25T16:52:24.188Z,1.60
2022-10-25T16:54:52.108Z,1.45
2022-10-25T16:57:19.930Z,1.60
2022-10-25T16:59:50.528Z,1.42
2022-10-25T17:02:20.467Z,1.50
2022-10-25T17:04:49.483Z,1.77
2022-10-25T17:07:17.379Z,1.95
2022-10-25T17:09:45.379Z,2.72
2022-10-25T17:12:13.698Z,2.55
2022-10-25T17:14:41.908Z,2.58
2022-10-25T17:17:11.129Z,2.50
2022-10-25T17:19:39.038Z,3.28
2022-10-25T17:22:07.455Z,2.78
2022-10-25T17:24:37.521Z,2.50
2022-10-25T17:27:06.358Z,2.75
2022-10-25T17:29:34.377Z,3.38
2022-10-25T17:32:02.298Z,3.45
2022-10-25T17:34:32.129Z,3.80
2022-10-25T17:37:02.078Z,3.67
2022-10-25T17:39:30.218Z,3.47
2022-10-25T17:41:58.156Z,3.40
2022-10-25T17:44:26.066Z,3.88
2022-10-25T17:46:54.870Z,3.75
2022-10-25T17:49:24.451Z,3.67
2022-10-25T17:51:53.578Z,3.60
2022-10-25T17:54:21.580Z,3.78
2022-10-25T17:56:49.408Z,3.30
2022-10-25T17:59:17.392Z,3.85
2022-10-25T18:01:45.374Z,3.53
2022-10-25T18:04:13.296Z,3.45
2022-10-25T18:06:41.153Z,3.40
2022-10-25T18:09:11.006Z,3.83
2022-10-25T18:11:39.954Z,3.50
2022-10-25T18:14:07.834Z,3.88
2022-10-25T18:16:35.629Z,3.38
2022-10-25T18:19:07.073Z,3.22
2022-10-25T18:21:35.112Z,3.30
2022-10-25T18:24:04.861Z,3.30
2022-10-25T18:26:35.531Z,2.70
2022-10-25T18:29:03.645Z,2.45
2022-10-25T18:31:31.457Z,2.97
2022-10-25T18:34:03.407Z,2.25
2022-10-25T18:36:32.760Z,2.55
2022-10-25T18:39:00.862Z,2.33
2022-10-25T18:41:31.388Z,2.30
2022-10-25T18:44:02.382Z,2.22
2022-10-25T18:46:31.922Z,2.58
2022-10-25T18:49:00.010Z,2.88
2022-10-25T18:51:29.259Z,3.67
2022-10-25T18:53:57.802Z,3.40
2022-10-25T18:56:26.512Z,3.47
2022-10-25T18:58:56.740Z,3.60
2022-10-25T19:01:28.723Z,4.20
2022-10-25T19:03:57.865Z,4.60
2022-10-25T19:06:26.581Z,4.82
2022-10-25T19:08:55.348Z,5.15
2022-10-25T19:11:23.773Z,5.20
2022-10-25T19:13:54.792Z,4.82
2022-10-25T19:16:23.341Z,4.57
2022-10-25T19:18:52.620Z,4.43
2022-10-25T19:21:20.844Z,3.75
2022-10-25T19:23:48.898Z,4.20
2022-10-25T19:26:19.476Z,4.13
2022-10-25T19:28:48.403Z,4.28
2022-10-25T19:31:18.412Z,4.00
2022-10-25T19:33:47.052Z,3.70
2022-10-25T19:36:17.652Z,3.30
2022-10-25T19:38:48.149Z,3.40
2022-10-25T19:41:19.277Z,3.30
2022-10-25T19:43:48.212Z,3.83
2022-10-25T19:46:16.444Z,3.80
2022-10-25T19:48:44.374Z,4.13
2022-10-25T19:51:14.122Z,3.95
2022-10-25T19:53:43.704Z,3.75
2022-10-25T19:56:13.833Z,3.35
2022-10-25T19:58:42.242Z,3.33
2022-10-25T20:01:12.531Z,2.75
2022-10-25T20:03:41.625Z,3.45
2022-10-25T20:06:11.199Z,3.22
2022-10-25T20:08:41.066Z,3.22
2022-10-25T20:11:13.108Z,3.22
2022-10-25T20:13:41.246Z,3.22
2022-10-25T20:16:09.920Z,3.05
2022-10-25T20:18:40.340Z,3.30
2022-10-25T20:21:11.464Z,3.10
2022-10-25T20:23:40.450Z,2.90
2022-10-25T20:26:14.513Z,3.25
2022-10-25T20:28:42.925Z,3.13
2022-10-25T20:31:11.589Z,3.50
2022-10-25T20:33:40.095Z,3.20
2022-10-25T20:36:09.910Z,2.50
2022-10-25T20:38:38.846Z,3.40
2022-10-25T20:41:08.375Z,2.83
2022-10-25T20:43:38.483Z,3.03
2022-10-25T20:46:08.044Z,2.90
2022-10-25T20:48:36.859Z,3.08
2022-10-25T20:51:07.774Z,2.90
2022-10-25T20:53:36.815Z,2.95
2022-10-25T20:56:05.835Z,2.72
2022-10-25T20:58:35.031Z,3.03
2022-10-25T21:01:04.355Z,2.63
2022-10-25T21:03:33.125Z,3.45
2022-10-25T21:06:04.441Z,2.70
2022-10-25T21:08:33.287Z,2.63
2022-10-25T21:11:02.290Z,2.90
2022-10-25T21:13:32.478Z,2.83
2022-10-25T21:16:05.256Z,2.45
2022-10-25T21:21:03.355Z,2.80
2022-10-25T21:23:32.149Z,3.00
2022-10-25T21:26:00.205Z,3.03
2022-10-25T21:28:28.197Z,2.55
2022-10-25T21:30:55.981Z,2.78
2022-10-25T21:33:23.775Z,2.60
2022-10-25T21:35:52.960Z,2.75
2022-10-25T21:38:20.940Z,2.22
2022-10-25T21:40:48.790Z,2.40
2022-10-25T21:43:16.610Z,2.85
2022-10-25T21:45:44.416Z,2.50
2022-10-25T21:48:12.320Z,2.50
2022-10-25T21:50:40.078Z,2.22
2022-10-25T21:53:09.357Z,2.30
2022-10-25T21:55:37.139Z,2.08
2022-10-25T21:58:04.980Z,1.95
2022-10-25T22:00:32.721Z,2.05
2022-10-25T22:03:00.499Z,2.35
2022-10-25T22:05:28.305Z,2.10
2022-10-25T22:07:56.161Z,2.25
2022-10-25T22:10:25.382Z,2.30
2022-10-25T22:12:54.906Z,1.90
2022-10-25T22:15:22.726Z,2.00
2022-10-25T22:17:50.583Z,2.10
2022-10-25T22:20:18.514Z,2.40
2022-10-25T22:22:46.603Z,2.40
2022-10-25T22:25:14.781Z,2.20
2022-10-25T22:30:18.294Z,2.30
2022-10-25T22:32:46.271Z,2.05
2022-10-25T22:35:14.533Z,2.20
2022-10-25T22:37:42.293Z,2.25
2022-10-25T22:40:10.971Z,1.90
2022-10-25T22:42:38.709Z,2.20
2022-10-25T22:45:09.029Z,1.88
2022-10-25T22:47:36.800Z,2.20
2022-10-25T22:50:04.740Z,2.08
2022-10-25T22:52:32.652Z,2.30
2022-10-25T22:55:00.495Z,1.90
2022-10-25T22:57:30.841Z,1.95
2022-10-25T22:59:58.627Z,1.92
2022-10-25T23:02:27.730Z,2.03
2022-10-25T23:04:55.482Z,2.28
2022-10-25T23:07:23.285Z,2.10
2022-10-25T23:09:51.060Z,1.80
2022-10-25T23:12:18.842Z,1.95
2022-10-25T23:14:46.656Z,1.98
2022-10-25T23:17:14.474Z,1.70
2022-10-25T23:19:43.612Z,1.80
2022-10-25T23:22:11.449Z,2.40
2022-10-25T23:24:39.172Z,2.15
2022-10-25T23:27:06.994Z,2.25
2022-10-25T23:29:34.871Z,2.20
2022-10-25T23:32:02.634Z,2.20
2022-10-25T23:34:32.150Z,2.22
2022-10-25T23:37:01.343Z,2.20
2022-10-25T23:39:29.128Z,2.10
2022-10-25T23:41:57.605Z,1.70
2022-10-25T23:44:25.460Z,1.73
2022-10-25T23:46:53.197Z,1.95
2022-10-25T23:49:20.956Z,1.90
2022-10-25T23:51:48.721Z,1.88
2022-10-25T23:54:17.904Z,1.92
2022-10-25T23:56:45.667Z,2.00
2022-10-25T23:59:13.484Z,1.88
